Time;durP1;ratioP1;P1;durP2;ratioP2;P2;SDS_P1;SDS_P2;PMS_P1;PMS_P2;Temp;Humidity;BMP_temperature;BMP_pressure;BME280_temperature;BME280_humidity;BME280_pressure;Samples;Min_cycle;Max_cycle;Signal;HPM_P1;HPM_P2
2022/06/26 05:16:16;;;;;;;2.55;1.00;;;;;;;18.26;86.28;100441.16;4749778;27;10002263;-73
2022/06/26 05:19:19;;;;;;;3.75;1.20;;;;;;;18.47;84.92;100437.63;5102836;28;20096;-74
2022/06/26 05:22:23;;;;;;;5.35;1.50;;;;;;;18.62;84.07;100440.75;5103552;28;20476;-72
2022/06/26 05:25:26;;;;;;;4.53;1.10;;;;;;;18.36;85.47;100441.19;4735887;28;10000048;-72
2022/06/26 05:28:31;;;;;;;3.75;1.00;;;;;;;18.36;85.77;100447.34;5096381;28;20136;-73
2022/06/26 05:31:35;;;;;;;3.13;0.98;;;;;;;18.57;85.29;100457.88;5101792;28;20135;-73
2022/06/26 05:34:39;;;;;;;3.58;1.10;;;;;;;18.69;84.73;100452.47;5101433;28;20078;-74
2022/06/26 05:37:42;;;;;;;5.88;1.00;;;;;;;18.55;86.03;100458.97;5104818;28;20038;-72
2022/06/26 05:40:46;;;;;;;3.47;1.20;;;;;;;18.42;86.06;100463.66;5105144;28;20046;-72
2022/06/26 05:43:52;;;;;;;6.13;1.48;;;;;;;18.48;85.72;100465.78;5107678;27;20109;-73
2022/06/26 05:46:56;;;;;;;5.82;1.00;;;;;;;18.34;86.62;100467.78;5084413;28;20059;-73
2022/06/26 05:50:25;;;;;;;2.75;1.10;;;;;;;18.50;85.93;100477.91;5084952;28;20070;-73
2022/06/26 05:57:05;;;;;;;5.80;1.17;;;;;;;18.61;85.55;100473.50;5033853;28;20057;-76
2022/06/26 06:00:12;;;;;;;5.38;1.20;;;;;;;18.64;83.18;100474.06;5043095;28;20553;-75
2022/06/26 06:15:24;;;;;;;3.75;0.80;;;;;;;18.68;78.94;100528.44;5126359;27;20377;-64
2022/06/26 06:18:30;;;;;;;4.22;0.60;;;;;;;18.83;80.47;100539.56;5149046;27;20168;-64
2022/06/26 06:21:34;;;;;;;3.15;0.73;;;;;;;18.93;77.90;100531.66;5124959;28;20047;-65
2022/06/26 06:24:37;;;;;;;3.05;0.77;;;;;;;19.04;76.59;100527.06;5125307;28;20449;-65
2022/06/26 06:27:41;;;;;;;3.22;1.02;;;;;;;19.31;75.99;100533.59;5124946;28;20515;-64
2022/06/26 06:30:49;;;;;;;2.83;0.68;;;;;;;19.26;76.56;100536.63;5125221;28;20046;-64
2022/06/26 06:33:59;;;;;;;1.75;0.60;;;;;;;19.37;76.73;100534.81;5124359;28;20050;-65
2022/06/26 06:37:02;;;;;;;2.47;0.65;;;;;;;19.39;75.82;100548.78;5124292;28;20108;-65
2022/06/26 06:40:07;;;;;;;2.88;0.60;;;;;;;19.54;75.67;100550.09;5124371;28;20038;-65
2022/06/26 06:43:15;;;;;;;2.80;0.65;;;;;;;19.56;75.69;100557.91;5124117;28;20074;-63
2022/06/26 06:46:44;;;;;;;2.90;0.70;;;;;;;19.65;75.04;100554.44;5125304;28;20054;-64
2022/06/26 06:49:52;;;;;;;3.38;0.70;;;;;;;19.38;74.37;100563.88;5122586;28;20400;-65
2022/06/26 06:52:56;;;;;;;2.60;0.57;;;;;;;19.58;74.61;100562.09;5125730;28;20100;-66
2022/06/26 06:55:59;;;;;;;4.28;0.80;;;;;;;19.71;73.62;100568.00;5124358;28;20368;-65
2022/06/26 06:59:03;;;;;;;2.45;0.60;;;;;;;19.87;72.84;100574.56;5123881;28;20098;-66
2022/06/26 07:02:07;;;;;;;2.85;0.60;;;;;;;19.94;71.93;100578.34;5125352;28;20083;-66
2022/06/26 07:05:10;;;;;;;2.20;0.68;;;;;;;19.70;72.82;100587.56;5104297;28;20529;-66
2022/06/26 07:08:14;;;;;;;5.18;0.88;;;;;;;19.74;72.42;100582.81;5104525;28;20066;-64
2022/06/26 07:11:17;;;;;;;1.25;0.57;;;;;;;19.65;71.40;100573.84;5105879;28;20523;-76
2022/06/26 07:14:22;;;;;;;3.15;0.68;;;;;;;19.65;71.64;100584.47;5090090;28;20228;-74
2022/06/26 07:17:25;;;;;;;3.85;0.65;;;;;;;19.65;72.02;100578.31;5098672;28;20055;-74
2022/06/26 07:20:31;;;;;;;1.60;0.63;;;;;;;19.45;71.95;100583.56;5111037;28;20038;-74
2022/06/26 07:23:35;;;;;;;2.13;0.60;;;;;;;19.46;71.69;100585.25;5110834;28;20416;-74
2022/06/26 07:26:44;;;;;;;2.67;0.80;;;;;;;19.74;71.40;100586.28;5100143;28;20053;-73
2022/06/26 07:29:48;;;;;;;3.75;0.68;;;;;;;19.69;71.73;100593.84;5110485;28;20404;-72
2022/06/26 07:32:51;;;;;;;3.83;0.50;;;;;;;19.74;70.29;100586.28;5110198;28;20094;-67
2022/06/26 07:35:55;;;;;;;2.50;0.57;;;;;;;19.86;70.46;100591.50;5110980;28;20672;-68
2022/06/26 07:38:59;;;;;;;4.35;0.65;;;;;;;19.97;71.15;100583.38;5110723;28;20575;-68
2022/06/26 07:42:04;;;;;;;1.70;0.43;;;;;;;19.95;71.02;100601.28;5110504;28;20046;-68
2022/06/26 07:45:10;;;;;;;2.40;0.68;;;;;;;19.99;71.12;100613.28;5109532;28;20046;-68
2022/06/26 07:48:33;;;;;;;1.73;0.57;;;;;;;20.12;69.98;100608.53;5102522;28;20047;-67
2022/06/26 07:51:37;;;;;;;1.63;0.40;;;;;;;19.92;70.44;100601.56;5089021;28;20070;-68
2022/06/26 07:54:41;;;;;;;1.40;0.43;;;;;;;20.14;70.43;100595.97;5088829;28;20132;-67
2022/06/26 07:57:44;;;;;;;3.92;0.90;;;;;;;20.35;69.90;100598.44;5088971;28;20047;-68
2022/06/26 08:00:48;;;;;;;1.95;0.40;;;;;;;20.19;69.93;100593.72;5098120;28;20088;-68
2022/06/26 08:03:51;;;;;;;1.58;0.50;;;;;;;20.20;70.50;100592.75;5109082;28;20222;-71
2022/06/26 08:06:54;;;;;;;6.28;0.57;;;;;;;20.18;70.14;100589.38;5111091;28;20489;-68
2022/06/26 08:09:57;;;;;;;1.52;0.50;;;;;;;20.32;69.84;100592.59;5109431;28;20078;-65
2022/06/26 08:13:01;;;;;;;2.42;0.75;;;;;;;20.56;69.16;100573.56;5109710;28;20116;-65
2022/06/26 08:16:05;;;;;;;1.98;0.68;;;;;;;20.72;69.75;100576.47;5108583;28;20104;-65
2022/06/26 08:19:08;;;;;;;4.45;0.50;;;;;;;20.97;69.95;100568.84;5109527;28;20407;-64
2022/06/26 08:22:11;;;;;;;4.53;0.80;;;;;;;20.94;69.79;100569.97;5089907;28;20405;-65
2022/06/26 08:25:15;;;;;;;2.80;0.80;;;;;;;20.81;69.73;100580.91;5089627;28;20067;-70
2022/06/26 08:28:18;;;;;;;2.60;0.82;;;;;;;20.72;69.39;100584.44;5088113;28;20132;-70
2022/06/26 08:31:21;;;;;;;4.45;0.68;;;;;;;20.77;67.17;100584.84;5109571;28;20104;-70
2022/06/26 08:34:25;;;;;;;1.77;0.52;;;;;;;20.32;67.80;100592.59;5109336;28;20050;-71
2022/06/26 08:37:28;;;;;;;1.75;0.60;;;;;;;20.57;67.29;100586.69;5109804;28;20050;-71
2022/06/26 08:40:32;;;;;;;3.15;0.30;;;;;;;20.50;67.92;100585.56;5109868;28;20051;-70
2022/06/26 08:43:39;;;;;;;1.92;0.63;;;;;;;20.73;67.66;100583.44;5108650;28;20046;-72
2022/06/26 08:46:44;;;;;;;1.52;0.60;;;;;;;20.90;67.72;100581.88;5109795;28;20055;-71
2022/06/26 08:49:48;;;;;;;1.55;0.60;;;;;;;20.80;68.39;100581.03;5109470;28;20104;-71
2022/06/26 08:52:53;;;;;;;1.38;0.40;;;;;;;20.94;67.98;100577.94;5108160;28;20046;-70
2022/06/26 08:55:57;;;;;;;2.45;0.50;;;;;;;21.14;66.39;100587.50;5108026;28;20565;-76
2022/06/26 08:59:00;;;;;;;2.67;0.60;;;;;;;21.17;65.07;100572.25;5107909;28;20537;-76
2022/06/26 09:02:33;;;;;;;;;;;;;;;;;;;;;
2022/06/26 09:05:40;;;;;;;3.75;0.63;;;;;;;21.08;66.22;100585.41;5089175;28;20050;-73
2022/06/26 09:08:45;;;;;;;1.92;0.43;;;;;;;21.13;65.00;100591.13;5090432;28;20070;-72
2022/06/26 09:11:53;;;;;;;1.55;0.65;;;;;;;21.13;64.01;100593.81;5106540;28;20054;-69
2022/06/26 09:14:57;;;;;;;2.15;0.52;;;;;;;21.25;64.49;100588.28;5095306;28;20058;-71
2022/06/26 09:18:05;;;;;;;3.33;0.50;;;;;;;21.31;63.53;100593.88;5108928;28;20131;-73
2022/06/26 09:21:10;;;;;;;2.13;0.52;;;;;;;21.45;63.08;100597.03;5109176;28;20081;-72
2022/06/26 09:24:17;;;;;;;4.85;0.82;;;;;;;21.41;62.96;100591.19;5108676;28;20092;-71
2022/06/26 09:27:21;;;;;;;1.73;0.57;;;;;;;21.43;62.59;100594.50;5107684;28;20515;-71
2022/06/26 09:30:24;;;;;;;1.42;0.55;;;;;;;21.26;61.79;100597.94;5109202;28;20085;-72
2022/06/26 09:37:11;;;;;;;2.28;0.55;;;;;;;21.77;62.63;100581.41;5088613;28;20054;-72
2022/06/26 09:40:16;;;;;;;2.70;0.50;;;;;;;21.83;61.16;100585.31;5092138;28;20310;-73
2022/06/26 09:43:41;;;;;;;5.20;0.52;;;;;;;21.90;61.66;100581.03;5107718;28;20042;-73
2022/06/26 09:46:44;;;;;;;2.13;0.55;;;;;;;21.84;60.91;100576.31;5108020;28;20046;-74
2022/06/26 09:49:51;;;;;;;1.55;0.40;;;;;;;21.84;60.68;100568.34;5108514;28;20050;-73
2022/06/26 09:52:54;;;;;;;3.60;0.43;;;;;;;21.99;62.44;100568.66;5107691;28;20039;-73
2022/06/26 09:55:59;;;;;;;3.33;0.50;;;;;;;22.12;61.95;100569.09;5108009;28;20093;-73
2022/06/26 09:59:03;;;;;;;1.48;0.40;;;;;;;21.97;61.20;100582.09;5097289;28;20078;-74
2022/06/26 10:09:17;;;;;;;1.60;0.50;;;;;;;21.66;59.06;100572.81;5095792;28;20163;-74
2022/06/26 10:12:21;;;;;;;2.83;0.45;;;;;;;21.66;56.65;100568.31;5108558;28;20108;-75
2022/06/26 10:15:29;;;;;;;1.63;0.40;;;;;;;21.88;57.54;100567.03;5108702;28;20044;-72
2022/06/26 10:18:55;;;;;;;1.63;0.45;;;;;;;22.10;58.11;100564.91;5108854;28;20100;-73
2022/06/26 10:22:11;;;;;;;1.88;0.30;;;;;;;22.36;58.09;100571.13;5108026;28;20473;-72
2022/06/26 10:25:23;;;;;;;1.60;0.45;;;;;;;22.57;57.96;100573.44;5087044;28;20089;-72
2022/06/26 10:28:30;;;;;;;1.73;0.40;;;;;;;22.87;56.52;100576.59;5086718;28;20046;-73
2022/06/26 10:31:47;;;;;;;1.90;0.60;;;;;;;23.02;56.21;100568.88;5107413;28;20070;-72
2022/06/26 10:34:56;;;;;;;2.00;0.43;;;;;;;23.21;55.27;100571.28;5108817;28;20104;-73
2022/06/26 10:38:26;;;;;;;2.20;0.40;;;;;;;23.52;55.41;100578.75;5108885;28;20504;-72
2022/06/26 10:45:19;;;;;;;3.60;1.10;;;;;;;23.51;52.50;100587.72;5107713;28;20085;-71
2022/06/26 10:48:23;;;;;;;1.23;0.35;;;;;;;23.26;52.50;100595.66;5107884;28;20097;-73
2022/06/26 10:51:29;;;;;;;1.65;0.60;;;;;;;23.35;52.98;100584.00;5090683;28;20054;-72
2022/06/26 10:54:33;;;;;;;1.50;0.40;;;;;;;22.97;53.94;100586.22;5111822;28;20042;-71
2022/06/26 10:57:38;;;;;;;2.67;0.70;;;;;;;22.91;55.59;100586.81;5111266;28;20058;-73
2022/06/26 11:00:42;;;;;;;2.70;0.60;;;;;;;22.66;56.89;100582.34;5111605;28;20588;-73
2022/06/26 11:03:45;;;;;;;2.50;0.47;;;;;;;22.77;56.63;100583.88;5107380;28;20066;-71
2022/06/26 11:06:50;;;;;;;4.30;1.02;;;;;;;22.79;56.84;100590.72;5092914;28;20132;-70
2022/06/26 11:09:57;;;;;;;3.63;0.88;;;;;;;22.72;56.77;100593.19;5090734;28;20042;-71
2022/06/26 11:13:02;;;;;;;3.10;0.70;;;;;;;22.74;57.34;100591.19;5091810;28;20741;-72
2022/06/26 11:16:05;;;;;;;3.25;0.60;;;;;;;22.68;57.90;100585.66;5092272;28;20491;-72
2022/06/26 11:19:21;;;;;;;5.13;0.73;;;;;;;23.07;57.68;100587.88;5091267;28;20789;-73
2022/06/26 11:22:29;;;;;;;4.57;0.80;;;;;;;22.83;57.39;100591.25;5111752;28;20070;-73
2022/06/26 11:25:32;;;;;;;3.30;0.55;;;;;;;23.04;58.32;100589.06;5111645;28;20173;-74
2022/06/26 11:28:39;;;;;;;2.47;0.95;;;;;;;22.81;58.58;100593.22;5111826;28;20108;-70
2022/06/26 11:31:48;;;;;;;1.98;0.60;;;;;;;23.03;57.05;100598.03;5111639;28;20122;-71
2022/06/26 11:34:56;;;;;;;2.05;0.80;;;;;;;22.95;58.56;100595.34;5110346;28;20184;-73
2022/06/26 11:38:14;;;;;;;1.55;0.40;;;;;;;22.91;58.51;100602.81;5111462;28;20046;-71
2022/06/26 11:41:19;;;;;;;2.60;0.60;;;;;;;22.76;57.57;100599.03;5112329;28;20632;-71
2022/06/26 11:44:26;;;;;;;2.97;0.50;;;;;;;22.74;57.79;100595.69;5111003;28;20062;-72
2022/06/26 11:47:34;;;;;;;3.97;0.60;;;;;;;23.07;57.70;100596.75;5111414;28;20114;-70
2022/06/26 11:50:41;;;;;;;2.80;0.50;;;;;;;22.83;58.35;100588.59;5110438;28;20455;-71
2022/06/26 11:53:46;;;;;;;2.10;0.95;;;;;;;22.31;59.90;100594.75;5111282;28;20067;-73
2022/06/26 11:56:49;;;;;;;2.38;0.77;;;;;;;22.31;58.79;100594.75;5111146;28;20046;-72
2022/06/26 11:59:53;;;;;;;4.30;0.70;;;;;;;22.38;59.39;100594.94;5111308;28;20055;-72
2022/06/26 12:03:01;;;;;;;2.38;0.70;;;;;;;22.37;58.65;100594.13;5111404;28;20411;-69
2022/06/26 12:06:07;;;;;;;4.07;0.55;;;;;;;22.32;59.13;100584.91;5112119;28;20092;-70
2022/06/26 12:09:19;;;;;;;3.05;0.70;;;;;;;22.18;59.57;100588.97;5111673;28;20058;-70
2022/06/26 12:12:26;;;;;;;1.60;0.60;;;;;;;22.13;59.75;100591.22;5111690;28;20039;-69
2022/06/26 12:15:36;;;;;;;1.95;0.50;;;;;;;22.46;59.27;100585.19;5070785;28;20047;-68
2022/06/26 12:18:41;;;;;;;1.70;0.60;;;;;;;22.57;59.35;100588.59;5069845;28;20127;-68
2022/06/26 12:21:47;;;;;;;4.60;1.17;;;;;;;22.69;59.31;100592.69;5062620;28;20047;-68
2022/06/26 12:24:51;;;;;;;14.13;0.80;;;;;;;22.65;58.88;100592.13;5069711;28;20067;-68
2022/06/26 12:27:59;;;;;;;6.28;0.90;;;;;;;22.66;59.47;100582.34;5056130;28;20051;-68
2022/06/26 12:31:02;;;;;;;2.28;0.90;;;;;;;22.38;60.84;100584.31;5050580;28;20043;-72
2022/06/26 12:34:06;;;;;;;3.58;0.82;;;;;;;22.48;60.33;100595.69;5057147;28;20044;-73
2022/06/26 12:37:09;;;;;;;5.50;0.70;;;;;;;22.45;59.75;100599.50;5068473;28;20075;-71
2022/06/26 12:40:13;;;;;;;1.67;0.52;;;;;;;22.00;60.10;100603.09;5069276;28;20470;-71
2022/06/26 12:43:18;;;;;;;2.50;0.70;;;;;;;22.10;60.42;100599.50;5069856;28;20054;-71
2022/06/26 12:46:23;;;;;;;2.83;0.95;;;;;;;22.18;60.60;100594.31;5070090;28;20065;-72
2022/06/26 12:49:36;;;;;;;2.78;1.27;;;;;;;22.24;60.45;100588.38;5069364;28;20126;-72
2022/06/26 12:52:40;;;;;;;3.53;1.25;;;;;;;22.14;63.18;100583.06;5069603;28;20114;-72
2022/06/26 12:55:44;;;;;;;3.13;1.00;;;;;;;22.00;61.02;100581.78;5070049;28;20080;-71
2022/06/26 12:58:48;;;;;;;3.55;0.88;;;;;;;22.00;60.57;100581.78;5070036;28;20565;-70
2022/06/26 13:01:51;;;;;;;3.97;1.20;;;;;;;22.14;61.53;100588.38;5068925;28;20460;-71
2022/06/26 13:04:55;;;;;;;2.38;1.02;;;;;;;22.14;62.02;100592.88;5069181;28;20110;-71
2022/06/26 13:07:58;;;;;;;2.88;1.10;;;;;;;22.19;61.97;100593.31;5069105;28;20099;-72
2022/06/26 13:14:26;;;;;;;3.38;1.17;;;;;;;22.26;61.32;100583.69;5092287;28;20112;-73
2022/06/26 13:17:31;;;;;;;3.10;0.95;;;;;;;22.05;63.89;100579.53;5096840;28;20531;-73
2022/06/26 13:20:35;;;;;;;4.38;1.10;;;;;;;22.27;62.61;100577.38;5109430;28;20263;-73
2022/06/26 13:23:38;;;;;;;2.47;0.85;;;;;;;21.96;60.71;100577.78;5109009;28;20088;-73
2022/06/26 13:26:42;;;;;;;3.50;2.17;;;;;;;22.20;61.15;100573.66;5110257;28;20138;-73
2022/06/26 13:29:46;;;;;;;28.20;23.98;;;;;;;22.10;62.14;100580.88;5108442;28;20122;-73
2022/06/26 13:32:52;;;;;;;27.23;24.27;;;;;;;21.86;62.52;100569.03;5109182;28;20050;-70
2022/06/26 13:35:55;;;;;;;38.03;33.83;;;;;;;21.99;63.23;100574.81;5109783;28;20046;-70
2022/06/26 13:38:59;;;;;;;15.63;11.90;;;;;;;22.22;63.03;100563.69;5109597;28;20070;-70
2022/06/26 13:42:04;;;;;;;3.75;1.30;;;;;;;22.00;65.88;100557.81;5108628;28;20102;-75
2022/06/26 13:45:08;;;;;;;2.15;1.13;;;;;;;22.11;62.83;100556.75;5108679;28;20167;-71
2022/06/26 13:48:12;;;;;;;3.15;1.85;;;;;;;22.21;64.03;100554.06;5109534;28;20510;-70
2022/06/26 13:51:15;;;;;;;3.13;1.02;;;;;;;22.23;63.77;100560.03;5109319;28;20050;-71
2022/06/26 13:54:18;;;;;;;3.20;1.15;;;;;;;22.21;63.38;100575.34;5108231;28;20077;-72
2022/06/26 13:57:21;;;;;;;3.13;1.10;;;;;;;22.27;62.91;100583.56;5108587;28;20462;-71
2022/06/26 14:00:25;;;;;;;4.30;0.80;;;;;;;22.50;61.69;100578.56;5097365;28;20046;-70
2022/06/26 14:03:29;;;;;;;4.07;1.13;;;;;;;21.96;62.77;100579.59;5106313;28;20460;-71
2022/06/26 14:06:32;;;;;;;3.08;1.30;;;;;;;22.11;62.64;100571.88;5104412;28;20092;-70
2022/06/26 14:09:38;;;;;;;3.17;0.90;;;;;;;21.92;63.38;100571.09;5107816;28;20523;-74
2022/06/26 14:12:41;;;;;;;2.97;0.90;;;;;;;22.29;62.21;100564.75;5107560;28;20554;-72
2022/06/26 14:15:44;;;;;;;2.50;1.10;;;;;;;22.32;62.20;100559.09;5091860;28;20054;-73
2022/06/26 14:18:48;;;;;;;4.95;1.27;;;;;;;22.54;61.81;100541.78;5088914;28;20101;-72
2022/06/26 14:28:37;;;;;;;2.20;1.15;;;;;;;22.13;62.33;100537.97;5093368;28;20063;-72
2022/06/26 14:31:42;;;;;;;2.50;0.88;;;;;;;22.00;63.43;100539.19;5093303;28;20416;-72
2022/06/26 14:34:46;;;;;;;2.05;1.02;;;;;;;22.10;62.92;100539.09;5092277;28;20047;-72
2022/06/26 14:37:49;;;;;;;3.17;1.25;;;;;;;21.91;64.01;100532.13;5093247;28;20155;-70
2022/06/26 14:40:53;;;;;;;2.13;0.80;;;;;;;22.14;63.14;100536.97;5095717;28;20054;-69
2022/06/26 14:43:57;;;;;;;4.03;1.10;;;;;;;21.58;64.40;100558.44;5112570;28;20053;-71
2022/06/26 14:47:00;;;;;;;3.17;1.23;;;;;;;21.70;63.61;100542.25;5112589;28;20412;-72
2022/06/26 14:50:04;;;;;;;3.95;1.45;;;;;;;21.85;64.19;100546.03;5112834;28;20050;-72
2022/06/26 14:53:08;;;;;;;2.30;0.95;;;;;;;21.49;64.99;100545.19;5113042;28;20503;-71
2022/06/26 14:56:12;;;;;;;2.50;1.05;;;;;;;21.31;65.29;100539.81;5111983;28;20037;-70
2022/06/26 14:59:16;;;;;;;2.83;1.20;;;;;;;21.19;65.44;100549.84;5112460;28;20220;-70
2022/06/26 15:02:21;;;;;;;2.95;0.93;;;;;;;21.10;66.15;100551.56;5112631;28;20104;-72
2022/06/26 15:05:25;;;;;;;2.80;1.30;;;;;;;20.91;66.08;100551.66;5112386;28;20043;-72
2022/06/26 15:08:30;;;;;;;2.28;1.23;;;;;;;20.98;66.15;100530.63;5112774;28;20057;-72
2022/06/26 15:11:34;;;;;;;3.85;1.13;;;;;;;21.10;66.12;100524.97;5100792;28;20508;-70
2022/06/26 15:14:38;;;;;;;4.20;0.98;;;;;;;21.31;65.87;100527.38;5110600;28;20042;-71
2022/06/26 15:17:41;;;;;;;1.90;0.95;;;;;;;21.44;65.50;100527.03;5111584;28;20112;-70
2022/06/26 15:20:45;;;;;;;2.92;1.00;;;;;;;21.39;66.56;100521.31;5111632;28;20507;-70
2022/06/26 15:23:48;;;;;;;5.65;0.82;;;;;;;21.06;67.11;100526.25;5111039;28;20038;-71
2022/06/26 15:26:57;;;;;;;4.32;1.25;;;;;;;20.93;66.99;100507.16;5111603;28;20066;-71
2022/06/26 15:30:03;;;;;;;3.00;1.48;;;;;;;20.99;66.75;100503.88;5111644;28;20042;-71
2022/06/26 15:33:06;;;;;;;5.80;1.02;;;;;;;21.19;66.84;100503.81;5111094;28;20050;-71
2022/06/26 15:36:10;;;;;;;2.53;1.00;;;;;;;20.96;66.61;100511.31;5111014;28;20104;-70
2022/06/26 15:39:18;;;;;;;2.30;1.00;;;;;;;20.83;66.97;100512.50;5110571;28;20043;-70
2022/06/26 15:42:47;;;;;;;5.93;0.90;;;;;;;20.78;67.71;100525.41;5109568;28;20408;-69
2022/06/26 15:45:51;;;;;;;2.05;0.88;;;;;;;20.74;67.58;100528.47;5110205;28;20570;-70
2022/06/26 15:48:55;;;;;;;3.47;0.90;;;;;;;20.70;67.37;100529.75;5111181;28;20054;-71
2022/06/26 15:51:58;;;;;;;2.13;1.05;;;;;;;20.64;67.56;100531.16;5110738;28;20112;-69
2022/06/26 15:55:03;;;;;;;2.45;0.80;;;;;;;20.89;67.14;100521.72;5090723;28;20043;-69
2022/06/26 15:58:08;;;;;;;3.47;1.35;;;;;;;20.88;66.65;100531.50;5091287;28;20047;-69
2022/06/26 16:01:14;;;;;;;2.75;1.10;;;;;;;20.91;66.06;100530.38;5090019;28;20105;-68
2022/06/26 16:04:18;;;;;;;2.45;0.90;;;;;;;20.85;66.58;100531.78;5090685;28;20097;-70
2022/06/26 16:07:24;;;;;;;2.63;0.90;;;;;;;20.60;67.20;100533.28;5099923;28;20134;-70
2022/06/26 16:10:27;;;;;;;4.50;1.00;;;;;;;20.81;66.95;100518.97;5110457;28;20051;-70
2022/06/26 16:13:32;;;;;;;2.47;1.00;;;;;;;20.64;67.28;100531.16;5110852;28;20043;-70
2022/06/26 16:16:36;;;;;;;3.25;1.20;;;;;;;20.54;67.50;100525.88;5110535;28;20065;-70
2022/06/26 16:19:40;;;;;;;4.03;1.00;;;;;;;20.61;67.73;100519.03;5111110;28;20416;-70
2022/06/26 16:26:16;;;;;;;4.40;4.00;;;;;;;20.57;67.51;100511.50;5110223;28;20118;-70
2022/06/26 16:29:20;;;;;;;3.22;1.90;;;;;;;20.56;67.54;100508.00;5109844;28;20105;-70
2022/06/26 16:32:24;;;;;;;4.28;1.83;;;;;;;20.76;66.98;100513.25;5110392;28;20458;-70
2022/06/26 16:35:28;;;;;;;3.88;1.38;;;;;;;20.58;66.83;100505.19;5110215;28;20074;-70
2022/06/26 16:38:34;;;;;;;3.65;1.20;;;;;;;20.60;66.94;100501.41;5110954;28;20524;-71
2022/06/26 16:41:39;;;;;;;2.83;1.13;;;;;;;20.69;66.67;100493.56;5110699;28;20121;-70
2022/06/26 16:44:42;;;;;;;2.38;1.20;;;;;;;20.83;67.00;100490.41;5110173;28;20039;-72
2022/06/26 16:47:46;;;;;;;3.72;2.22;;;;;;;20.90;66.68;100465.75;5108152;28;20050;-71
2022/06/26 16:50:49;;;;;;;6.55;1.55;;;;;;;21.10;65.85;100466.47;5109683;28;20082;-72
2022/06/26 16:53:53;;;;;;;3.35;1.10;;;;;;;21.30;65.13;100461.03;5110056;28;20035;-71
2022/06/26 16:56:56;;;;;;;2.28;1.15;;;;;;;21.24;64.93;100456.31;5110564;28;20074;-70
2022/06/26 17:00:00;;;;;;;4.47;3.28;;;;;;;21.35;64.93;100456.13;5110512;28;20108;-69
2022/06/26 17:03:05;;;;;;;3.42;0.90;;;;;;;21.05;64.98;100455.44;5109958;28;20047;-69
2022/06/26 17:06:09;;;;;;;3.83;2.10;;;;;;;20.69;65.53;100467.81;5088959;28;20550;-70
2022/06/26 17:09:12;;;;;;;3.83;2.15;;;;;;;20.83;65.27;100474.47;5088926;28;20039;-70
2022/06/26 17:12:16;;;;;;;3.30;1.70;;;;;;;20.63;66.24;100479.03;5088882;28;20117;-70
2022/06/26 17:15:22;;;;;;;3.78;1.20;;;;;;;20.55;66.33;100489.53;5088816;28;20049;-69
2022/06/26 17:18:27;;;;;;;3.63;1.63;;;;;;;20.80;65.52;100493.34;5095219;28;20128;-69
2022/06/26 17:21:31;;;;;;;4.07;1.40;;;;;;;21.17;64.35;100479.19;5109515;28;20202;-69
2022/06/26 17:24:35;;;;;;;2.95;1.38;;;;;;;20.97;64.76;100476.63;5108947;28;20073;-70
2022/06/26 17:27:40;;;;;;;2.25;1.20;;;;;;;21.08;65.17;100479.06;5109133;28;20080;-70
2022/06/26 17:30:44;;;;;;;2.90;1.08;;;;;;;20.92;64.71;100481.53;5108191;28;20139;-69
2022/06/26 17:33:48;;;;;;;3.10;1.40;;;;;;;20.79;65.23;100467.78;5108244;28;20066;-70
2022/06/26 17:36:52;;;;;;;2.20;0.95;;;;;;;20.78;65.37;100463.44;5108897;28;20050;-70
2022/06/26 17:39:55;;;;;;;3.92;1.35;;;;;;;20.94;65.00;100463.63;5109053;28;20070;-69
2022/06/26 17:42:59;;;;;;;4.35;1.13;;;;;;;20.65;65.77;100461.13;5109014;28;20089;-69
2022/06/26 17:46:04;;;;;;;4.28;1.38;;;;;;;20.60;66.15;100464.22;5108237;28;20050;-69
2022/06/26 17:49:08;;;;;;;3.05;0.88;;;;;;;20.65;65.12;100463.78;5086514;28;20046;-69
2022/06/26 17:52:12;;;;;;;5.85;1.20;;;;;;;20.90;64.62;100454.31;5087452;28;20433;-69
2022/06/26 17:55:18;;;;;;;2.28;0.80;;;;;;;21.00;64.23;100457.72;5087303;28;20043;-73
2022/06/26 17:58:23;;;;;;;6.60;1.67;;;;;;;20.95;64.56;100462.66;5086968;28;20530;-70
2022/06/26 18:01:27;;;;;;;2.97;1.40;;;;;;;21.08;64.01;100449.00;5104703;28;20454;-69
2022/06/26 18:04:31;;;;;;;3.20;1.27;;;;;;;21.12;63.46;100435.28;5108970;28;20112;-69
2022/06/26 18:07:34;;;;;;;2.08;1.00;;;;;;;21.04;64.21;100429.84;5109031;28;20059;-68
2022/06/26 18:10:38;;;;;;;2.30;0.88;;;;;;;20.94;64.57;100426.44;5108137;28;20069;-69
2022/06/26 18:13:42;;;;;;;2.47;1.10;;;;;;;20.92;65.97;100431.03;5107365;28;20046;-69
2022/06/26 18:16:45;;;;;;;3.95;1.33;;;;;;;20.69;68.21;100446.56;5108393;28;20055;-69
2022/06/26 18:19:49;;;;;;;4.82;1.25;;;;;;;20.74;67.48;100446.97;5109122;28;20046;-69
2022/06/26 18:22:55;;;;;;;2.70;0.93;;;;;;;20.73;67.70;100450.59;5108809;28;20047;-69
2022/06/26 18:26:01;;;;;;;3.33;1.10;;;;;;;20.70;68.08;100445.56;5108783;28;20569;-69
2022/06/26 18:29:05;;;;;;;1.83;0.88;;;;;;;20.54;67.32;100454.16;5088238;28;20082;-69
2022/06/26 18:32:08;;;;;;;2.58;1.10;;;;;;;20.38;68.27;100460.06;5087212;28;20059;-69
2022/06/26 18:35:11;;;;;;;3.22;0.95;;;;;;;20.23;69.38;100458.03;5087210;28;20050;-69
2022/06/26 18:38:15;;;;;;;5.28;1.52;;;;;;;20.33;68.91;100464.16;5087980;28;20090;-69
2022/06/26 18:41:20;;;;;;;5.55;1.30;;;;;;;20.25;70.22;100478.16;5095465;28;20127;-69
2022/06/26 18:44:26;;;;;;;1.98;1.17;;;;;;;20.35;70.54;100465.66;5109390;28;20077;-70
2022/06/26 18:47:29;;;;;;;2.65;1.08;;;;;;;20.39;71.52;100458.28;5109004;28;20511;-70
2022/06/26 18:50:33;;;;;;;3.65;1.30;;;;;;;20.28;72.82;100469.06;5109676;28;20088;-70
2022/06/26 18:53:36;;;;;;;3.60;1.60;;;;;;;20.26;73.70;100473.66;5108811;28;20104;-70
2022/06/26 18:56:40;;;;;;;2.60;1.08;;;;;;;19.76;73.52;100450.03;5108642;28;20124;-70
2022/06/26 18:59:43;;;;;;;2.45;1.27;;;;;;;19.95;74.36;100436.75;5109065;28;20105;-69
2022/06/26 19:02:51;;;;;;;6.40;1.85;;;;;;;19.86;77.13;100424.31;5108961;28;20503;-70
2022/06/26 19:05:55;;;;;;;4.03;1.55;;;;;;;19.71;77.91;100421.25;5109107;28;20042;-73
2022/06/26 19:09:00;;;;;;;3.20;1.65;;;;;;;19.54;79.41;100429.91;5108990;28;20062;-69
2022/06/26 19:15:27;;;;;;;3.05;1.33;;;;;;;19.55;78.87;100445.66;5111909;28;20058;-69
2022/06/26 19:18:30;;;;;;;3.70;1.40;;;;;;;19.63;78.32;100442.34;5110746;28;20181;-70
2022/06/26 19:21:34;;;;;;;2.55;1.20;;;;;;;19.37;80.20;100444.69;5109578;28;20042;-68
2022/06/26 19:24:39;;;;;;;2.78;1.30;;;;;;;19.38;79.78;100439.25;5111727;28;20136;-67
2022/06/26 19:28:08;;;;;;;2.63;1.17;;;;;;;19.34;79.74;100432.56;5111627;28;20092;-70
2022/06/26 19:31:12;;;;;;;5.28;1.88;;;;;;;19.16;80.89;100434.22;5107487;28;20042;-66
2022/06/26 19:34:17;;;;;;;4.97;1.50;;;;;;;19.09;81.71;100444.53;5105456;28;20080;-67
2022/06/26 19:37:21;;;;;;;3.35;1.95;;;;;;;18.77;82.25;100450.88;5111594;28;20077;-66
2022/06/26 19:40:24;;;;;;;7.80;2.80;;;;;;;18.56;83.43;100453.53;5091803;28;20039;-67
2022/06/26 19:43:27;;;;;;;6.22;1.70;;;;;;;18.35;84.61;100464.19;5091198;28;20043;-67
2022/06/26 19:46:36;;;;;;;3.22;1.70;;;;;;;18.38;85.00;100470.19;5091556;28;20096;-67
2022/06/26 19:53:03;;;;;;;2.47;1.60;;;;;;;18.39;85.08;100487.75;5108831;28;20134;-67
2022/06/26 19:56:08;;;;;;;2.58;1.40;;;;;;;18.43;84.55;100487.34;5111173;28;20334;-65
2022/06/26 19:59:15;;;;;;;4.15;1.52;;;;;;;18.56;82.71;100490.59;5110833;28;20627;-66
2022/06/26 20:02:19;;;;;;;4.20;1.33;;;;;;;18.66;82.92;100495.13;5107300;28;20104;-66
2022/06/26 20:05:23;;;;;;;3.70;1.73;;;;;;;18.43;84.48;100513.00;5108100;28;20546;-66
2022/06/26 20:08:27;;;;;;;5.38;1.80;;;;;;;18.12;84.65;100512.94;5108115;28;20070;-67
2022/06/26 20:11:32;;;;;;;4.47;1.65;;;;;;;18.35;83.37;100503.91;5109685;28;20051;-67
2022/06/26 20:14:38;;;;;;;2.78;1.45;;;;;;;18.42;82.50;100477.75;5109995;28;20110;-68
2022/06/26 20:17:42;;;;;;;3.85;1.77;;;;;;;18.54;81.75;100463.44;5091534;28;20093;-67
2022/06/26 20:20:45;;;;;;;4.22;1.60;;;;;;;18.76;81.39;100433.31;5091096;28;20102;-67
2022/06/26 20:23:48;;;;;;;3.47;1.45;;;;;;;18.63;82.91;100427.34;5106762;28;20054;-73
2022/06/26 20:26:52;;;;;;;3.65;1.70;;;;;;;18.60;82.93;100417.03;5109326;28;20180;-72
2022/06/26 20:30:00;;;;;;;3.00;1.40;;;;;;;18.42;83.92;100424.78;5106252;28;20088;-75